Time;durP1;ratioP1;P1;durP2;ratioP2;P2;SDS_P1;SDS_P2;PMS_P1;PMS_P2;Temp;Humidity;BMP_temperature;BMP_pressure;BME280_temperature;BME280_humidity;BME280_pressure;Samples;Min_cycle;Max_cycle;Signal;HPM_P1;HPM_P2
2021/12/08 00:02:16;;;;;;;11.18;4.80;;;;;;;;;;5113802;27;20657;-80
2021/12/08 00:04:42;;;;;;;11.25;5.00;;;;;;;;;;5112135;27;20069;-76
2021/12/08 00:07:09;;;;;;;13.48;5.78;;;;;;;;;;5128042;27;20503;-80
2021/12/08 00:14:53;;;;;;;18.33;4.53;;;;;;;;;;5134891;27;20042;-80
2021/12/08 00:17:19;;;;;;;11.05;4.85;;;;;;;;;;5112862;27;20104;-80
2021/12/08 00:19:45;;;;;;;16.60;5.07;;;;;;;;;;5137873;27;20052;-79
2021/12/08 00:22:11;;;;;;;8.13;4.40;;;;;;;;;;5150933;27;20068;-80
2021/12/08 00:24:37;;;;;;;13.80;6.43;;;;;;;;;;5127642;27;20046;-80
2021/12/08 00:27:04;;;;;;;9.27;5.07;;;;;;;;;;5132185;27;20397;-80
2021/12/08 00:29:30;;;;;;;13.13;4.93;;;;;;;;;;5098725;27;20088;-80
2021/12/08 00:31:56;;;;;;;13.75;4.32;;;;;;;;;;5115102;27;20039;-80
2021/12/08 00:34:23;;;;;;;11.82;4.88;;;;;;;;;;5129149;27;20129;-80
2021/12/08 00:36:52;;;;;;;9.23;5.07;;;;;;;;;;5115885;27;20066;-79
2021/12/08 00:39:18;;;;;;;12.27;5.13;;;;;;;;;;5126795;27;20130;-80
2021/12/08 00:41:44;;;;;;;11.10;5.05;;;;;;;;;;5145369;27;20035;-79
2021/12/08 00:44:10;;;;;;;8.77;4.50;;;;;;;;;;5143632;27;20137;-80
2021/12/08 00:46:37;;;;;;;14.70;4.57;;;;;;;;;;5130632;27;20496;-79
2021/12/08 00:49:04;;;;;;;13.70;6.10;;;;;;;;;;5132987;27;20146;-80
2021/12/08 00:51:30;;;;;;;11.32;4.55;;;;;;;;;;5115162;27;20081;-80
2021/12/08 00:53:56;;;;;;;10.52;4.65;;;;;;;;;;5130603;27;20047;-79
2021/12/08 00:56:22;;;;;;;15.88;6.75;;;;;;;;;;5116084;27;20499;-79
2021/12/08 00:58:48;;;;;;;12.32;5.40;;;;;;;;;;5115838;27;20076;-79
2021/12/08 01:01:15;;;;;;;16.88;6.38;;;;;;;;;;5131662;27;20043;-79
2021/12/08 01:03:42;;;;;;;13.25;5.25;;;;;;;;;;5128851;27;20043;-79
2021/12/08 01:06:08;;;;;;;11.88;5.28;;;;;;;;;;5131252;27;20122;-79
2021/12/08 01:08:34;;;;;;;11.60;4.80;;;;;;;;;;5129920;27;20485;-79
2021/12/08 01:11:03;;;;;;;8.45;4.95;;;;;;;;;;5124960;27;20410;-80
2021/12/08 01:13:29;;;;;;;14.60;4.90;;;;;;;;;;5110054;27;20482;-80
2021/12/08 01:15:56;;;;;;;9.48;4.75;;;;;;;;;;5132966;27;20122;-80
2021/12/08 01:18:23;;;;;;;11.40;5.18;;;;;;;;;;5133780;27;20042;-80
2021/12/08 01:20:50;;;;;;;13.20;5.75;;;;;;;;;;5113327;27;20047;-80
2021/12/08 01:23:17;;;;;;;10.85;5.40;;;;;;;;;;5129419;27;20121;-80
2021/12/08 01:25:43;;;;;;;11.20;5.68;;;;;;;;;;5113755;27;20050;-80
2021/12/08 01:28:09;;;;;;;11.05;5.60;;;;;;;;;;5132532;27;20063;-80
2021/12/08 01:30:35;;;;;;;11.70;5.40;;;;;;;;;;5134308;27;20462;-80
2021/12/08 01:33:02;;;;;;;13.13;5.82;;;;;;;;;;5119580;27;20038;-80
2021/12/08 01:35:28;;;;;;;19.00;6.45;;;;;;;;;;5119428;27;20049;-80
2021/12/08 01:37:54;;;;;;;14.93;6.40;;;;;;;;;;5135139;27;20042;-80
2021/12/08 01:40:21;;;;;;;17.08;7.50;;;;;;;;;;5119883;27;20049;-80
2021/12/08 01:42:50;;;;;;;10.35;5.78;;;;;;;;;;5125036;27;20481;-80
2021/12/08 01:48:04;;;;;;;12.93;6.80;;;;;;;;;;5137053;27;20057;-80
2021/12/08 01:50:30;;;;;;;16.77;6.57;;;;;;;;;;5135673;27;20038;-80
2021/12/08 01:52:56;;;;;;;14.13;7.10;;;;;;;;;;5113196;27;20130;-80
2021/12/08 01:55:22;;;;;;;13.13;6.95;;;;;;;;;;5130083;27;20039;-80
2021/12/08 01:57:48;;;;;;;12.60;7.00;;;;;;;;;;5136199;27;20078;-80
2021/12/08 02:00:21;;;;;;;12.95;6.90;;;;;;;;;;5116070;27;20035;-80
2021/12/08 02:02:47;;;;;;;17.55;7.25;;;;;;;;;;5137015;27;20473;-80
2021/12/08 02:05:13;;;;;;;14.02;6.25;;;;;;;;;;5136230;27;20125;-80
2021/12/08 02:07:39;;;;;;;15.35;7.80;;;;;;;;;;5115364;27;20438;-80
2021/12/08 02:10:06;;;;;;;17.25;7.88;;;;;;;;;;5133926;27;20146;-80
2021/12/08 02:12:36;;;;;;;12.65;6.55;;;;;;;;;;5142340;27;20042;-80
2021/12/08 02:15:03;;;;;;;11.65;6.88;;;;;;;;;;5131071;27;20102;-80
2021/12/08 02:17:29;;;;;;;15.40;7.57;;;;;;;;;;5122089;27;20039;-80
2021/12/08 02:19:56;;;;;;;14.55;7.15;;;;;;;;;;5121267;27;20524;-79
2021/12/08 02:22:22;;;;;;;13.90;8.00;;;;;;;;;;5140622;27;20440;-79
2021/12/08 02:24:48;;;;;;;16.88;7.65;;;;;;;;;;5123508;27;20077;-79
2021/12/08 02:27:14;;;;;;;15.85;8.45;;;;;;;;;;5123719;27;20035;-79
2021/12/08 02:29:48;;;;;;;16.17;7.88;;;;;;;;;;5123711;27;20492;-80
2021/12/08 02:48:31;;;;;;;13.95;7.57;;;;;;;;;;5134661;27;20061;-79
2021/12/08 02:50:57;;;;;;;16.52;7.78;;;;;;;;;;5152468;27;20042;-80
2021/12/08 02:53:24;;;;;;;13.73;7.63;;;;;;;;;;5132362;27;20046;-79
2021/12/08 02:55:50;;;;;;;11.10;7.82;;;;;;;;;;5134909;27;20050;-79
2021/12/08 02:58:18;;;;;;;14.68;7.80;;;;;;;;;;5130803;27;20043;-79
2021/12/08 03:00:55;;;;;;;12.43;7.72;;;;;;;;;;5152441;27;20046;-79
2021/12/08 03:03:22;;;;;;;12.82;8.25;;;;;;;;;;5141329;27;20042;-80
2021/12/08 03:05:48;;;;;;;15.10;8.80;;;;;;;;;;5152860;27;20142;-79
2021/12/08 03:08:14;;;;;;;13.05;9.43;;;;;;;;;;5137393;27;20503;-79
2021/12/08 03:10:43;;;;;;;13.55;8.68;;;;;;;;;;5115737;27;20370;-80
2021/12/08 03:13:10;;;;;;;13.30;8.98;;;;;;;;;;5136740;27;20190;-79
2021/12/08 03:15:37;;;;;;;15.45;9.95;;;;;;;;;;5116747;27;20495;-79
2021/12/08 03:18:03;;;;;;;18.23;9.60;;;;;;;;;;5132314;27;20038;-79
2021/12/08 03:20:44;;;;;;;15.48;9.90;;;;;;;;;;5150964;27;20051;-80
2021/12/08 03:23:15;;;;;;;14.43;11.25;;;;;;;;;;5113992;27;20051;-79
2021/12/08 03:25:44;;;;;;;16.48;11.20;;;;;;;;;;5134439;27;20051;-80
2021/12/08 03:28:23;;;;;;;17.48;12.23;;;;;;;;;;5116216;27;20082;-79
2021/12/08 03:33:19;;;;;;;18.38;13.60;;;;;;;;;;5168599;27;20056;-80
2021/12/08 03:35:45;;;;;;;15.80;11.63;;;;;;;;;;5144090;27;21405;-79
2021/12/08 03:38:11;;;;;;;24.20;14.45;;;;;;;;;;5135473;27;20502;-79
2021/12/08 03:40:37;;;;;;;23.67;14.60;;;;;;;;;;5130482;27;20414;-79
2021/12/08 03:43:03;;;;;;;22.48;12.32;;;;;;;;;;5133351;27;20065;-78
2021/12/08 03:45:33;;;;;;;26.77;15.13;;;;;;;;;;5120251;27;20040;-79
2021/12/08 03:48:03;;;;;;;19.30;14.98;;;;;;;;;;5128977;27;20054;-79
2021/12/08 03:50:31;;;;;;;20.35;14.48;;;;;;;;;;5138390;27;20046;-79
2021/12/08 03:52:57;;;;;;;18.77;14.95;;;;;;;;;;5130918;27;21710;-79
2021/12/08 03:55:23;;;;;;;18.98;15.18;;;;;;;;;;5131909;27;20043;-79
2021/12/08 03:57:50;;;;;;;23.17;15.48;;;;;;;;;;5132856;27;20111;-78
2021/12/08 04:00:17;;;;;;;24.98;16.88;;;;;;;;;;5133400;27;20050;-79
2021/12/08 04:02:44;;;;;;;23.02;15.75;;;;;;;;;;5116958;27;20074;-79
2021/12/08 04:05:10;;;;;;;22.92;15.70;;;;;;;;;;5130416;27;20049;-80
2021/12/08 04:07:43;;;;;;;21.25;16.75;;;;;;;;;;5135002;27;20042;-79
2021/12/08 04:10:18;;;;;;;17.93;14.67;;;;;;;;;;5129547;27;20043;-79
2021/12/08 04:12:47;;;;;;;29.98;18.08;;;;;;;;;;5131836;27;20035;-79
2021/12/08 04:15:14;;;;;;;24.63;17.35;;;;;;;;;;5131024;27;20046;-79
2021/12/08 04:17:42;;;;;;;22.63;17.02;;;;;;;;;;5133012;27;20051;-79
2021/12/08 04:20:15;;;;;;;23.77;16.90;;;;;;;;;;5130341;27;20034;-79
2021/12/08 04:22:42;;;;;;;27.00;17.50;;;;;;;;;;5114232;27;20076;-79
2021/12/08 04:25:11;;;;;;;23.38;16.80;;;;;;;;;;5112732;27;20039;-80
2021/12/08 04:27:38;;;;;;;25.83;17.35;;;;;;;;;;5133278;27;20043;-79
2021/12/08 04:30:09;;;;;;;27.20;19.05;;;;;;;;;;5129671;27;20039;-79
2021/12/08 04:32:36;;;;;;;31.73;18.30;;;;;;;;;;5119522;27;20050;-79
2021/12/08 04:35:10;;;;;;;25.48;18.15;;;;;;;;;;5138317;27;20516;-79
2021/12/08 04:37:37;;;;;;;26.65;18.38;;;;;;;;;;5125618;27;20043;-79
2021/12/08 04:40:19;;;;;;;28.25;18.73;;;;;;;;;;5130860;27;20046;-80
2021/12/08 04:45:20;;;;;;;25.17;17.73;;;;;;;;;;5130677;27;20084;-79
2021/12/08 04:48:42;;;;;;;25.75;18.55;;;;;;;;;;5116099;27;20401;-79
2021/12/08 04:51:10;;;;;;;28.02;18.67;;;;;;;;;;5123697;27;20042;-79
2021/12/08 04:53:37;;;;;;;26.42;18.90;;;;;;;;;;5129899;27;20409;-79
2021/12/08 05:04:31;;;;;;;25.58;17.55;;;;;;;;;;5129946;27;20053;-79
2021/12/08 05:09:33;;;;;;;25.30;17.88;;;;;;;;;;5122812;27;20047;-79
2021/12/08 05:12:02;;;;;;;24.35;17.48;;;;;;;;;;5118364;27;20035;-79
2021/12/08 05:14:34;;;;;;;22.48;16.92;;;;;;;;;;5124589;27;20493;-79
2021/12/08 05:17:03;;;;;;;24.52;16.92;;;;;;;;;;5109287;27;20051;-79
2021/12/08 05:19:30;;;;;;;26.08;17.98;;;;;;;;;;5101917;27;20546;-79
2021/12/08 05:22:05;;;;;;;19.83;15.40;;;;;;;;;;5124135;27;20039;-80
2021/12/08 05:24:34;;;;;;;24.15;16.20;;;;;;;;;;5123313;27;20096;-79
2021/12/08 05:27:03;;;;;;;23.73;16.13;;;;;;;;;;5117060;27;20046;-79
2021/12/08 05:29:33;;;;;;;22.13;16.30;;;;;;;;;;5122353;27;20047;-79
2021/12/08 05:32:01;;;;;;;21.90;14.73;;;;;;;;;;5123178;27;20643;-79
2021/12/08 05:34:27;;;;;;;23.08;14.98;;;;;;;;;;5127875;27;20039;-79
2021/12/08 05:36:54;;;;;;;22.05;15.55;;;;;;;;;;5136318;27;20139;-80
2021/12/08 05:39:22;;;;;;;23.83;14.70;;;;;;;;;;5105668;27;20109;-78
2021/12/08 05:41:52;;;;;;;24.65;15.65;;;;;;;;;;5121652;27;20042;-78
2021/12/08 05:44:18;;;;;;;20.13;14.27;;;;;;;;;;5125849;27;20058;-77
2021/12/08 05:46:45;;;;;;;20.98;14.55;;;;;;;;;;5132697;27;20490;-77
2021/12/08 05:49:13;;;;;;;21.95;15.13;;;;;;;;;;5132632;27;20043;-80
2021/12/08 05:51:40;;;;;;;21.30;14.80;;;;;;;;;;5144482;27;20046;-79
2021/12/08 05:54:11;;;;;;;24.88;13.77;;;;;;;;;;5121070;27;20423;-79
2021/12/08 05:56:37;;;;;;;18.83;12.95;;;;;;;;;;5161351;27;20054;-78
2021/12/08 05:59:05;;;;;;;19.40;13.27;;;;;;;;;;5128657;27;20039;-76
2021/12/08 06:01:33;;;;;;;18.90;14.25;;;;;;;;;;5100361;27;20047;-79
2021/12/08 06:03:59;;;;;;;22.42;14.15;;;;;;;;;;5100384;27;20137;-80
2021/12/08 06:06:26;;;;;;;24.75;14.30;;;;;;;;;;5100426;27;20051;-81
2021/12/08 06:08:53;;;;;;;16.38;12.93;;;;;;;;;;5120755;27;20038;-83
2021/12/08 06:11:19;;;;;;;18.58;12.88;;;;;;;;;;5113694;27;20047;-83
2021/12/08 06:13:47;;;;;;;16.58;12.75;;;;;;;;;;5101235;27;20054;-82
2021/12/08 06:16:13;;;;;;;22.00;12.65;;;;;;;;;;5135405;27;20039;-84
2021/12/08 06:18:40;;;;;;;20.38;12.52;;;;;;;;;;5123819;27;20054;-82
2021/12/08 06:21:09;;;;;;;18.05;12.38;;;;;;;;;;5109111;27;20483;-83
2021/12/08 06:23:37;;;;;;;18.55;12.30;;;;;;;;;;5105343;27;20465;-83
2021/12/08 06:26:04;;;;;;;18.52;12.27;;;;;;;;;;5120845;27;20448;-82
2021/12/08 06:28:30;;;;;;;19.20;12.25;;;;;;;;;;5152873;27;20031;-81
2021/12/08 06:30:56;;;;;;;18.63;11.95;;;;;;;;;;5123055;27;20400;-77
2021/12/08 06:33:22;;;;;;;17.60;12.13;;;;;;;;;;5126611;27;20078;-77
2021/12/08 06:35:51;;;;;;;21.33;12.25;;;;;;;;;;5109838;27;20115;-79
2021/12/08 06:38:18;;;;;;;18.67;11.93;;;;;;;;;;5136955;27;20163;-77
2021/12/08 06:40:56;;;;;;;22.17;11.10;;;;;;;;;;5106355;27;20103;-80
2021/12/08 06:43:25;;;;;;;20.38;12.35;;;;;;;;;;5118497;27;20477;-79
2021/12/08 06:45:53;;;;;;;19.48;11.35;;;;;;;;;;5118572;27;20157;-78
2021/12/08 06:48:21;;;;;;;17.00;10.50;;;;;;;;;;5123953;27;20052;-82
2021/12/08 06:51:05;;;;;;;19.60;10.75;;;;;;;;;;5127482;27;20041;-82
2021/12/08 06:53:31;;;;;;;18.70;11.55;;;;;;;;;;5106326;27;20055;-77
2021/12/08 06:56:00;;;;;;;20.27;11.00;;;;;;;;;;5112104;27;20058;-78
2021/12/08 06:58:27;;;;;;;18.38;11.27;;;;;;;;;;5143789;27;20537;-78
2021/12/08 07:01:19;;;;;;;16.40;10.88;;;;;;;;;;5107886;27;20039;-82
2021/12/08 07:04:33;;;;;;;18.55;10.95;;;;;;;;;;5171691;27;20050;-79
2021/12/08 07:07:00;;;;;;;16.23;11.13;;;;;;;;;;5115593;27;20394;-79
2021/12/08 07:09:41;;;;;;;22.83;11.07;;;;;;;;;;5116571;27;20043;-80
2021/12/08 07:12:18;;;;;;;18.02;10.93;;;;;;;;;;5116386;27;20043;-80
2021/12/08 07:14:47;;;;;;;18.67;10.95;;;;;;;;;;5117917;27;20412;-81
2021/12/08 07:17:14;;;;;;;19.08;11.00;;;;;;;;;;5122327;27;20371;-81
2021/12/08 07:19:46;;;;;;;16.30;11.07;;;;;;;;;;5107943;27;20477;-81
2021/12/08 07:22:24;;;;;;;19.70;10.25;;;;;;;;;;5150549;27;20039;-81
2021/12/08 07:24:53;;;;;;;23.60;10.30;;;;;;;;;;5132616;27;20054;-75
2021/12/08 07:27:21;;;;;;;15.40;9.68;;;;;;;;;;5116598;27;20050;-78
2021/12/08 07:29:48;;;;;;;19.90;9.55;;;;;;;;;;5129551;27;20039;-77
2021/12/08 07:32:26;;;;;;;23.00;9.68;;;;;;;;;;5100112;27;20046;-76
2021/12/08 07:34:53;;;;;;;14.57;8.88;;;;;;;;;;5138665;27;20486;-76
2021/12/08 07:37:24;;;;;;;17.77;9.52;;;;;;;;;;5122472;27;20039;-77
2021/12/08 07:39:55;;;;;;;19.45;9.20;;;;;;;;;;5134234;27;20043;-77
2021/12/08 07:42:25;;;;;;;16.00;9.52;;;;;;;;;;5129017;27;20561;-77
2021/12/08 07:44:54;;;;;;;14.65;8.50;;;;;;;;;;5114964;27;20050;-77
2021/12/08 07:47:20;;;;;;;16.45;7.55;;;;;;;;;;5150179;27;20051;-76
2021/12/08 07:49:49;;;;;;;18.77;7.75;;;;;;;;;;5129179;27;20470;-76
2021/12/08 07:52:17;;;;;;;19.15;7.32;;;;;;;;;;5123287;27;20054;-76
2021/12/08 07:54:44;;;;;;;15.57;7.15;;;;;;;;;;5120372;27;20115;-76
2021/12/08 07:57:13;;;;;;;13.77;6.80;;;;;;;;;;5104115;27;20078;-79
2021/12/08 07:59:41;;;;;;;15.13;6.55;;;;;;;;;;5135619;27;20068;-76
2021/12/08 08:02:08;;;;;;;12.55;5.25;;;;;;;;;;5151943;27;20383;-76
2021/12/08 08:04:37;;;;;;;11.45;5.45;;;;;;;;;;5116890;27;20099;-76
2021/12/08 08:07:04;;;;;;;12.48;6.05;;;;;;;;;;5123297;27;20074;-76
2021/12/08 08:09:35;;;;;;;14.05;4.60;;;;;;;;;;5135936;27;20493;-77
2021/12/08 08:12:02;;;;;;;9.38;4.88;;;;;;;;;;5133937;27;20130;-76
2021/12/08 08:14:31;;;;;;;18.88;5.40;;;;;;;;;;5141137;27;20054;-76
2021/12/08 08:16:58;;;;;;;13.20;4.50;;;;;;;;;;5145426;27;20049;-76
2021/12/08 08:19:28;;;;;;;13.23;4.88;;;;;;;;;;5119824;27;20058;-76
2021/12/08 08:21:58;;;;;;;14.05;3.85;;;;;;;;;;5129344;27;20092;-76
2021/12/08 08:24:24;;;;;;;12.60;4.45;;;;;;;;;;5110373;27;20057;-78
2021/12/08 08:26:52;;;;;;;8.77;3.45;;;;;;;;;;5128184;27;20489;-76
2021/12/08 08:29:18;;;;;;;8.93;3.80;;;;;;;;;;5117249;27;20043;-76
2021/12/08 08:31:51;;;;;;;10.18;3.58;;;;;;;;;;5135348;27;20047;-77
2021/12/08 08:34:17;;;;;;;11.25;4.00;;;;;;;;;;5125174;27;20047;-77
2021/12/08 08:36:46;;;;;;;14.57;5.20;;;;;;;;;;5123190;27;20042;-77
2021/12/08 08:39:15;;;;;;;9.75;3.80;;;;;;;;;;5131415;27;20061;-76
2021/12/08 08:41:46;;;;;;;10.32;4.03;;;;;;;;;;5132177;27;20034;-76
2021/12/08 08:44:14;;;;;;;12.05;4.53;;;;;;;;;;5150101;27;20485;-77
2021/12/08 08:46:45;;;;;;;13.15;4.63;;;;;;;;;;5128702;27;20074;-73
2021/12/08 08:49:13;;;;;;;12.88;3.80;;;;;;;;;;5158366;27;20058;-77
2021/12/08 08:51:43;;;;;;;11.68;3.75;;;;;;;;;;5111417;27;20179;-76
2021/12/08 08:54:14;;;;;;;9.65;4.35;;;;;;;;;;5127024;27;20051;-77
2021/12/08 08:56:45;;;;;;;10.32;3.85;;;;;;;;;;5129608;27;20109;-77
2021/12/08 08:59:17;;;;;;;10.02;3.42;;;;;;;;;;5110342;27;20065;-77
2021/12/08 09:01:47;;;;;;;11.32;4.68;;;;;;;;;;5137602;27;20046;-77
2021/12/08 09:04:16;;;;;;;11.27;3.58;;;;;;;;;;5109296;27;20102;-77
2021/12/08 09:06:44;;;;;;;10.45;3.20;;;;;;;;;;5109933;27;20062;-77
2021/12/08 09:09:12;;;;;;;10.30;3.30;;;;;;;;;;5132137;27;20058;-76
2021/12/08 09:11:42;;;;;;;10.20;2.90;;;;;;;;;;5129248;27;20407;-76
2021/12/08 09:14:15;;;;;;;7.43;3.10;;;;;;;;;;5109559;27;20034;-76
2021/12/08 09:16:48;;;;;;;21.10;4.40;;;;;;;;;;5126429;27;20433;-76
2021/12/08 09:19:30;;;;;;;11.18;4.05;;;;;;;;;;5125527;27;20500;-77
2021/12/08 09:22:08;;;;;;;11.98;3.10;;;;;;;;;;5130697;27;20039;-77
2021/12/08 09:24:40;;;;;;;11.77;2.90;;;;;;;;;;5130408;27;20378;-77
2021/12/08 09:27:08;;;;;;;10.43;2.83;;;;;;;;;;5138083;27;20051;-77
2021/12/08 09:29:44;;;;;;;6.88;3.00;;;;;;;;;;5125131;27;20450;-77
2021/12/08 09:32:22;;;;;;;11.65;2.75;;;;;;;;;;5109113;27;20082;-78
2021/12/08 09:34:55;;;;;;;13.60;2.85;;;;;;;;;;5126461;27;20046;-77
2021/12/08 09:37:22;;;;;;;11.48;2.78;;;;;;;;;;5134868;27;20088;-77
2021/12/08 09:39:50;;;;;;;12.30;3.10;;;;;;;;;;5132227;27;20165;-77
2021/12/08 09:42:49;;;;;;;12.68;3.40;;;;;;;;;;5129280;27;20122;-77
2021/12/08 09:45:33;;;;;;;10.45;2.88;;;;;;;;;;5124265;27;20097;-77
2021/12/08 09:47:59;;;;;;;;;;;;;;;;;;5150020;27;20095;-77
2021/12/08 09:50:25;;;;;;;10.35;2.78;;;;;;;;;;5112777;27;19927;-77
2021/12/08 09:52:51;;;;;;;;;;;;;;;;;;5149555;27;20077;-77
2021/12/08 09:55:17;;;;;;;;;;;;;;;;;;5159710;27;19918;-77
2021/12/08 09:57:43;;;;;;;;;;;;;;;;;;5131960;27;20016;-76
2021/12/08 10:00:09;;;;;;;;;;;;;;;;;;5130132;27;19927;-78
2021/12/08 10:02:37;;;;;;;;;;;;;;;;;;5131021;27;19919;-76
2021/12/08 10:05:03;;;;;;;;;;;;;;;;;;5129338;27;19943;-77
2021/12/08 10:07:29;;;;;;;;;;;;;;;;;;5127262;27;19920;-77
2021/12/08 10:09:55;;;;;;;;;;;;;;;;;;5125913;27;19930;-77
2021/12/08 10:12:21;;;;;;;;;;;;;;;;;;5122878;27;19930;-76
2021/12/08 10:14:47;;;;;;;;;;;;;;;;;;5130772;27;20396;-76
2021/12/08 10:17:13;;;;;;;;;;;;;;;;;;5131222;27;20358;-78
2021/12/08 10:19:39;;;;;;;;;;;;;;;;;;5125017;27;19975;-76
2021/12/08 10:22:05;;;;;;;;;;;;;;;;;;5121447;27;20375;-79
2021/12/08 10:24:31;;;;;;;;;;;;;;;;;;5121932;27;19930;-79
2021/12/08 10:26:57;;;;;;;;;;;;;;;;;;5143127;27;19926;-80
2021/12/08 10:29:23;;;;;;;;;;;;;;;;;;5121369;27;19958;-77
2021/12/08 10:31:48;;;;;;;;;;;;;;;;;;5140924;27;19930;-78
2021/12/08 10:36:45;;;;;;;;;;;;;;;;;;5154514;27;19938;-78
2021/12/08 10:39:11;;;;;;;;;;;;;;;;;;5157745;27;19931;-77
2021/12/08 10:41:36;;;;;;;;;;;;;;;;;;5134852;27;19964;-76
2021/12/08 10:44:02;;;;;;;;;;;;;;;;;;5155348;27;19926;-77
2021/12/08 10:46:28;;;;;;;;;;;;;;;;;;5151864;27;20009;-78
2021/12/08 10:48:54;;;;;;;;;;;;;;;;;;5126584;27;19968;-78
2021/12/08 10:54:26;;;;;;;;;;;;;;;;;;5108229;27;19923;-76
2021/12/08 10:56:56;;;;;;;;;;;;;;;;;;5098392;28;20010;-77
2021/12/08 10:59:22;;;;;;;;;;;;;;;;;;5099255;28;20176;-77
2021/12/08 11:01:48;;;;;;;;;;;;;;;;;;5093152;27;19927;-77
2021/12/08 11:04:16;;;;;;;;;;;;;;;;;;5103700;28;19920;-77
2021/12/08 11:06:42;;;;;;;;;;;;;;;;;;5105258;28;20003;-77
2021/12/08 11:09:08;;;;;;;;;;;;;;;;;;5098694;27;20002;-77
2021/12/08 11:11:35;;;;;;;;;;;;;;;;;;5093158;28;20351;-77
2021/12/08 11:14:01;;;;;;;;;;;;;;;;;;5080689;28;19968;-77
2021/12/08 11:16:27;;;;;;;;;;;;;;;;;;5101500;27;19920;-77
2021/12/08 11:18:52;;;;;;;;;;;;;;;;;;5092414;28;19928;-77
2021/12/08 11:21:20;;;;;;;;;;;;;;;;;;5097494;27;20313;-77
2021/12/08 11:23:48;;;;;;;;;;;;;;;;;;5097431;28;19993;-77
2021/12/08 11:26:14;;;;;;;;;;;;;;;;;;5097296;28;19939;-76
2021/12/08 11:28:40;;;;;;;;;;;;;;;;;;5094813;28;19927;-75
2021/12/08 11:31:06;;;;;;;;;;;;;;;;;;5081559;28;20341;-74
2021/12/08 11:33:32;;;;;;;;;;;;;;;;;;5103086;27;19946;-77
2021/12/08 11:35:58;;;;;;;;;;;;;;;;;;5097693;28;20287;-76
2021/12/08 11:38:24;;;;;;;;;;;;;;;;;;5080919;28;19920;-77
2021/12/08 11:40:50;;;;;;;;;;;;;;;;;;5106357;27;19924;-77
2021/12/08 11:43:16;;;;;;;;;;;;;;;;;;5096048;27;19946;-76
2021/12/08 11:45:43;;;;;;;;;;;;;;;;;;5098161;28;19920;-77
2021/12/08 11:48:09;;;;;;;;;;;;;;;;;;5097267;28;19923;-77
2021/12/08 11:50:38;;;;;;;;;;;;;;;;;;5099582;28;20477;-77
2021/12/08 11:53:04;;;;;;;;;;;;;;;;;;5097781;28;19920;-77
2021/12/08 11:55:30;;;;;;;;;;;;;;;;;;5105366;28;19930;-80
2021/12/08 11:57:56;;;;;;;;;;;;;;;;;;5108812;27;19934;-78
2021/12/08 12:00:22;;;;;;;;;;;;;;;;;;5118451;27;19920;-79
2021/12/08 12:02:53;;;;;;;;;;;;;;;;;;5108233;28;19919;-79
2021/12/08 12:05:19;;;;;;;;;;;;;;;;;;5095824;27;19923;-80
2021/12/08 12:07:46;;;;;;;;;;;;;;;;;;5110447;27;19973;-80
2021/12/08 12:10:12;;;;;;;;;;;;;;;;;;5104470;28;20358;-79
2021/12/08 12:12:39;;;;;;;;;;;;;;;;;;5092997;28;19980;-79
2021/12/08 12:15:05;;;;;;;;;;;;;;;;;;5093269;28;19919;-79
2021/12/08 12:17:31;;;;;;;;;;;;;;;;;;5096851;28;20362;-79
2021/12/08 12:19:57;;;;;;;;;;;;;;;;;;5130194;27;19978;-79
2021/12/08 12:22:23;;;;;;;;;;;;;;;;;;5091202;28;20005;-79
2021/12/08 12:24:49;;;;;;;;;;;;;;;;;;5134680;27;19924;-79
2021/12/08 12:27:15;;;;;;;;;;;;;;;;;;5096890;28;19930;-80
2021/12/08 12:29:41;;;;;;;;;;;;;;;;;;5075777;28;19924;-79
2021/12/08 12:32:07;;;;;;;;;;;;;;;;;;5125499;27;19920;-78
2021/12/08 12:34:33;;;;;;;;;;;;;;;;;;5097696;28;19942;-78
2021/12/08 12:36:59;;;;;;;;;;;;;;;;;;5091925;28;19924;-77
2021/12/08 12:39:25;;;;;;;;;;;;;;;;;;5127587;27;19920;-78
2021/12/08 12:41:51;;;;;;;;;;;;;;;;;;5107081;27;20297;-78
2021/12/08 12:44:17;;;;;;;;;;;;;;;;;;5088320;28;20321;-77
2021/12/08 12:46:43;;;;;;;;;;;;;;;;;;5132967;27;20255;-78
2021/12/08 12:49:09;;;;;;;;;;;;;;;;;;5106769;28;20396;-76
2021/12/08 12:51:35;;;;;;;;;;;;;;;;;;5106890;28;20316;-81
2021/12/08 12:54:02;;;;;;;;;;;;;;;;;;5127838;27;20293;-81
2021/12/08 12:56:27;;;;;;;;;;;;;;;;;;5123514;27;20362;-80
2021/12/08 12:58:53;;;;;;;;;;;;;;;;;;5118762;27;19923;-81
2021/12/08 13:01:19;;;;;;;;;;;;;;;;;;5148360;27;19976;-79
2021/12/08 13:03:45;;;;;;;;;;;;;;;;;;5122441;28;20298;-80
2021/12/08 13:06:11;;;;;;;;;;;;;;;;;;5120399;28;19923;-76
2021/12/08 13:08:38;;;;;;;;;;;;;;;;;;5115030;27;19926;-76
2021/12/08 13:11:11;;;;;;;;;;;;;;;;;;5127552;27;19923;-78
2021/12/08 13:13:37;;;;;;;;;;;;;;;;;;5115179;28;19941;-78
2021/12/08 13:16:02;;;;;;;;;;;;;;;;;;5102746;28;19919;-74
2021/12/08 13:18:28;;;;;;;;;;;;;;;;;;5124495;28;20379;-75
2021/12/08 13:20:57;;;;;;;;;;;;;;;;;;5119933;27;20354;-76
2021/12/08 13:23:25;;;;;;;;;;;;;;;;;;5125334;27;19945;-75
2021/12/08 13:26:04;;;;;;;;;;;;;;;;;;5106808;27;19919;-74
2021/12/08 13:28:33;;;;;;;;;;;;;;;;;;5117991;27;19970;-75
2021/12/08 13:30:59;;;;;;;;;;;;;;;;;;5113509;27;20274;-76
2021/12/08 13:33:26;;;;;;;;;;;;;;;;;;5124003;27;20010;-71
2021/12/08 13:35:53;;;;;;;;;;;;;;;;;;5133531;27;19961;-74
2021/12/08 13:38:19;;;;;;;;;;;;;;;;;;5115417;27;19958;-74
2021/12/08 13:40:45;;;;;;;;;;;;;;;;;;5106701;27;19974;-74
2021/12/08 13:43:11;;;;;;;;;;;;;;;;;;5119343;27;20023;-73
2021/12/08 13:45:37;;;;;;;;;;;;;;;;;;5111985;27;19954;-79
2021/12/08 13:48:03;;;;;;;;;;;;;;;;;;5133270;27;20402;-73
2021/12/08 13:50:29;;;;;;;;;;;;;;;;;;5127528;27;20389;-75
2021/12/08 13:52:55;;;;;;;;;;;;;;;;;;5151645;27;19919;-75
2021/12/08 13:55:21;;;;;;;;;;;;;;;;;;5131998;27;19930;-77
2021/12/08 13:57:46;;;;;;;;;;;;;;;;;;5117773;27;19923;-76
2021/12/08 14:00:12;;;;;;;;;;;;;;;;;;5143406;27;19971;-75
2021/12/08 14:02:38;;;;;;;;;;;;;;;;;;5118229;27;19923;-75
2021/12/08 14:05:04;;;;;;;;;;;;;;;;;;5127650;27;19923;-75
2021/12/08 14:07:30;;;;;;;;;;;;;;;;;;5126003;27;20201;-75
2021/12/08 14:09:56;;;;;;;;;;;;;;;;;;5133527;27;19922;-77
2021/12/08 14:12:22;;;;;;;;;;;;;;;;;;5126852;27;19962;-75
2021/12/08 14:14:48;;;;;;;;;;;;;;;;;;5126756;27;19919;-72
2021/12/08 14:17:14;;;;;;;;;;;;;;;;;;5144513;27;19952;-76
2021/12/08 14:19:40;;;;;;;;;;;;;;;;;;5121510;27;19923;-76
2021/12/08 14:22:06;;;;;;;;;;;;;;;;;;5155186;27;20349;-73
2021/12/08 14:24:32;;;;;;;;;;;;;;;;;;5143373;27;19920;-76
2021/12/08 14:26:58;;;;;;;;;;;;;;;;;;5141852;27;19928;-76
2021/12/08 14:29:24;;;;;;;;;;;;;;;;;;5136185;27;20013;-76
2021/12/08 14:31:50;;;;;;;;;;;;;;;;;;5141379;27;19923;-75
2021/12/08 14:34:16;;;;;;;;;;;;;;;;;;5132751;27;19971;-73
2021/12/08 14:36:42;;;;;;;;;;;;;;;;;;5135409;27;20319;-75
2021/12/08 14:39:08;;;;;;;;;;;;;;;;;;5129761;27;19919;-73
2021/12/08 14:41:34;;;;;;;;;;;;;;;;;;5141801;27;20430;-73
2021/12/08 14:44:00;;;;;;;;;;;;;;;;;;5132208;27;19923;-76
2021/12/08 14:46:26;;;;;;;;;;;;;;;;;;5149776;27;19919;-76
2021/12/08 14:48:52;;;;;;;;;;;;;;;;;;5157354;27;19934;-76
2021/12/08 14:51:18;;;;;;;;;;;;;;;;;;5122448;27;20081;-75
2021/12/08 14:53:44;;;;;;;;;;;;;;;;;;5143366;27;19923;-78
2021/12/08 14:56:10;;;;;;;;;;;;;;;;;;5126335;27;19930;-75
2021/12/08 14:58:36;;;;;;;;;;;;;;;;;;5158840;27;19926;-75
2021/12/08 15:01:02;;;;;;;;;;;;;;;;;;5131144;27;19923;-75
2021/12/08 15:03:28;;;;;;;;;;;;;;;;;;5141923;27;20066;-77
2021/12/08 15:05:53;;;;;;;;;;;;;;;;;;5129512;27;20399;-76
2021/12/08 15:08:21;;;;;;;;;;;;;;;;;;5152018;27;20170;-74
2021/12/08 15:10:47;;;;;;;;;;;;;;;;;;5133448;27;19968;-82
2021/12/08 15:13:13;;;;;;;;;;;;;;;;;;5140383;27;19918;-75
2021/12/08 15:15:39;;;;;;;;;;;;;;;;;;5133269;27;20319;-75
2021/12/08 15:18:05;;;;;;;;;;;;;;;;;;5130514;27;19919;-76
2021/12/08 15:20:31;;;;;;;;;;;;;;;;;;5164591;27;19954;-75
2021/12/08 15:22:57;;;;;;;;;;;;;;;;;;5123363;27;19929;-76
2021/12/08 15:25:23;;;;;;;;;;;;;;;;;;5153591;27;19923;-75
2021/12/08 15:27:49;;;;;;;;;;;;;;;;;;5134499;27;20013;-76
2021/12/08 15:30:15;;;;;;;;;;;;;;;;;;5133091;27;20314;-77
2021/12/08 15:32:41;;;;;;;;;;;;;;;;;;5129218;27;19923;-77
2021/12/08 15:35:07;;;;;;;;;;;;;;;;;;5125447;27;19919;-77
2021/12/08 15:37:33;;;;;;;;;;;;;;;;;;5141819;27;19919;-77
2021/12/08 15:39:59;;;;;;;;;;;;;;;;;;5127017;27;19968;-77
2021/12/08 15:42:25;;;;;;;;;;;;;;;;;;5128564;27;19923;-76
2021/12/08 15:44:55;;;;;;;;;;;;;;;;;;5141138;27;20017;-77
2021/12/08 15:47:21;;;;;;;;;;;;;;;;;;5127065;27;19919;-77
2021/12/08 15:49:47;;;;;;;;;;;;;;;;;;5121401;27;19930;-77
2021/12/08 15:52:13;;;;;;;;;;;;;;;;;;5138015;27;19923;-77
2021/12/08 15:54:39;;;;;;;;;;;;;;;;;;5127758;27;19919;-77
2021/12/08 15:57:06;;;;;;;;;;;;;;;;;;5152749;27;19933;-80
2021/12/08 15:59:34;;;;;;;6.72;2.50;;;;;;;;;;5145936;27;19946;-76
2021/12/08 16:02:02;;;;;;;10.13;2.60;;;;;;;;;;5108746;27;20051;-77
2021/12/08 16:04:28;;;;;;;6.28;2.42;;;;;;;;;;5131186;27;20043;-78
2021/12/08 16:06:56;;;;;;;9.45;3.10;;;;;;;;;;5131348;27;20481;-78